createdAt,value
2023-04-18T00:02:27.258Z,85.54
2023-04-18T00:04:56.489Z,84.47
2023-04-18T00:07:25.761Z,83.60
2023-04-18T00:09:52.187Z,83.60
2023-04-18T00:12:18.963Z,82.88
2023-04-18T00:14:50.366Z,82.60
2023-04-18T00:17:16.970Z,82.21
2023-04-18T00:19:48.168Z,81.20
2023-04-18T00:22:22.265Z,81.88
2023-04-18T00:24:50.033Z,81.68
2023-04-18T00:27:18.841Z,81.44
2023-04-18T00:29:45.412Z,80.77
2023-04-18T00:32:11.969Z,80.99
2023-04-18T00:34:38.931Z,81.30
2023-04-18T00:37:05.606Z,81.96
2023-04-18T00:39:35.634Z,81.59
2023-04-18T00:42:05.434Z,81.37
2023-04-18T00:44:32.406Z,80.84
2023-04-18T00:47:01.712Z,80.77
2023-04-18T00:49:33.522Z,80.63
2023-04-18T00:52:02.610Z,80.60
2023-04-18T00:54:29.085Z,80.48
2023-04-18T00:56:56.272Z,80.95
2023-04-18T00:59:25.442Z,80.99
2023-04-18T01:01:54.678Z,80.84
2023-04-18T01:04:21.545Z,80.68
2023-04-18T01:06:48.217Z,80.50
2023-04-18T01:09:17.205Z,81.14
2023-04-18T01:11:46.032Z,80.69
2023-04-18T01:14:15.272Z,81.44
2023-04-18T01:16:44.365Z,80.37
2023-04-18T01:19:11.485Z,81.08
2023-04-18T01:21:41.781Z,80.65
2023-04-18T01:24:16.370Z,80.85
2023-04-18T01:26:45.857Z,80.32
2023-04-18T01:29:12.458Z,80.62
2023-04-18T01:31:40.661Z,80.05
2023-04-18T01:34:10.144Z,80.55
2023-04-18T01:36:40.853Z,79.56
2023-04-18T01:39:09.860Z,80.23
2023-04-18T01:41:36.547Z,80.61
2023-04-18T01:44:08.701Z,80.48
2023-04-18T01:46:37.589Z,80.43
2023-04-18T01:49:10.334Z,80.20
2023-04-18T01:51:38.889Z,79.50
2023-04-18T01:54:05.566Z,79.55
2023-04-18T01:56:32.129Z,78.62
2023-04-18T01:59:01.130Z,78.96
2023-04-18T02:01:27.710Z,78.27
2023-04-18T02:03:57.397Z,78.27
2023-04-18T02:06:48.435Z,77.87
2023-04-18T02:09:17.213Z,77.79
2023-04-18T02:11:51.026Z,77.75
2023-04-18T02:14:17.572Z,78.47
2023-04-18T02:16:48.630Z,78.36
2023-04-18T02:19:15.302Z,78.63
2023-04-18T02:21:41.976Z,78.18
2023-04-18T02:24:08.559Z,78.56
2023-04-18T02:26:37.352Z,78.82
2023-04-18T02:29:04.146Z,78.39
2023-04-18T02:31:33.104Z,77.27
2023-04-18T02:34:01.851Z,77.60
2023-04-18T02:36:31.019Z,78.22
2023-04-18T02:38:57.591Z,77.84
2023-04-18T02:41:26.522Z,77.99
2023-04-18T02:43:55.335Z,78.32
2023-04-18T02:46:21.937Z,78.53
2023-04-18T02:48:50.865Z,78.97
2023-04-18T02:51:17.437Z,78.37
2023-04-18T02:53:46.679Z,78.09
2023-04-18T02:56:17.128Z,78.69
2023-04-18T02:58:43.715Z,80.51
2023-04-18T03:01:12.543Z,82.86
2023-04-18T03:03:39.165Z,83.71
2023-04-18T03:06:05.935Z,85.21
2023-04-18T03:08:32.566Z,83.93
2023-04-18T03:10:59.208Z,84.01
2023-04-18T03:13:28.009Z,85.51
2023-04-18T03:15:54.634Z,86.12
2023-04-18T03:18:21.389Z,86.52
2023-04-18T03:20:47.998Z,86.02
2023-04-18T03:23:14.816Z,86.12
2023-04-18T03:25:43.909Z,85.46
2023-04-18T03:28:10.461Z,85.25
2023-04-18T03:30:42.736Z,85.75
2023-04-18T03:33:11.576Z,85.86
2023-04-18T03:35:38.208Z,85.51
2023-04-18T03:38:04.734Z,85.17
2023-04-18T03:40:31.293Z,85.05
2023-04-18T03:43:00.304Z,84.67
2023-04-18T03:45:26.974Z,84.05
2023-04-18T03:47:56.088Z,83.87
2023-04-18T03:50:25.862Z,84.83
2023-04-18T03:52:52.764Z,83.93
2023-04-18T03:55:20.210Z,84.10
2023-04-18T03:57:49.315Z,85.32
2023-04-18T04:00:18.191Z,85.03
2023-04-18T04:02:44.849Z,84.56
2023-04-18T04:05:11.561Z,83.93
2023-04-18T04:07:38.226Z,84.27
2023-04-18T04:10:07.791Z,85.11
2023-04-18T04:12:34.955Z,84.78
2023-04-18T04:15:03.930Z,84.25
2023-04-18T04:17:32.862Z,83.63
2023-04-18T04:20:04.200Z,83.76
2023-04-18T04:22:33.092Z,83.64
2023-04-18T04:25:00.842Z,83.31
2023-04-18T04:27:27.412Z,83.69
2023-04-18T04:29:54.110Z,84.46
2023-04-18T04:32:24.043Z,84.49
2023-04-18T04:34:56.325Z,84.55
2023-04-18T04:37:23.846Z,83.94
2023-04-18T04:46:21.463Z,85.02
2023-04-18T04:55:17.552Z,84.73
2023-04-18T04:57:44.925Z,84.10
2023-04-18T05:00:20.822Z,84.68
2023-04-18T05:02:48.526Z,84.78
2023-04-18T05:05:15.767Z,86.50
2023-04-18T05:07:42.325Z,86.21
2023-04-18T05:10:09.350Z,86.07
2023-04-18T05:12:36.145Z,87.92
2023-04-18T05:15:05.492Z,90.07
2023-04-18T05:17:34.822Z,90.01
2023-04-18T05:20:01.457Z,91.08
2023-04-18T05:22:30.522Z,91.39
2023-04-18T05:24:56.971Z,90.26
2023-04-18T05:27:23.838Z,90.25
2023-04-18T05:29:51.043Z,89.88
2023-04-18T05:32:17.584Z,90.14
2023-04-18T05:34:44.206Z,90.87
2023-04-18T05:37:10.846Z,89.90
2023-04-18T05:39:39.970Z,89.75
2023-04-18T05:42:08.797Z,89.68
2023-04-18T05:44:35.825Z,90.39
2023-04-18T05:47:06.803Z,89.89
2023-04-18T05:49:33.637Z,89.36
2023-04-18T05:52:00.289Z,87.89
2023-04-18T05:54:29.843Z,86.75
2023-04-18T05:56:57.303Z,85.56
2023-04-18T05:59:24.143Z,85.57
2023-04-18T06:01:51.478Z,85.57
2023-04-18T06:04:24.472Z,84.61
2023-04-18T06:06:53.427Z,82.97
2023-04-18T06:09:24.784Z,81.87
2023-04-18T06:11:51.323Z,82.92
2023-04-18T06:14:17.917Z,82.57
2023-04-18T06:16:44.659Z,81.61
2023-04-18T06:19:11.248Z,82.84
2023-04-18T06:21:42.072Z,80.27
2023-04-18T06:24:11.539Z,81.12
2023-04-18T06:26:38.150Z,80.53
2023-04-18T06:29:04.755Z,80.91
2023-04-18T06:31:31.335Z,80.09
2023-04-18T06:33:57.965Z,79.39
2023-04-18T06:36:24.985Z,77.71
2023-04-18T06:38:53.773Z,77.52
2023-04-18T06:41:22.799Z,76.95
2023-04-18T06:44:02.097Z,78.21
2023-04-18T06:46:30.379Z,78.17
2023-04-18T06:48:57.131Z,77.13
2023-04-18T06:51:25.974Z,76.92
2023-04-18T06:53:55.191Z,74.92
2023-04-18T06:56:29.680Z,74.25
2023-04-18T06:58:56.265Z,74.11
2023-04-18T07:01:25.074Z,72.97
2023-04-18T07:03:54.740Z,71.50
2023-04-18T07:06:26.293Z,72.43
2023-04-18T07:08:59.984Z,71.03
2023-04-18T07:11:26.880Z,72.62
2023-04-18T07:13:53.938Z,71.46
2023-04-18T07:16:20.708Z,70.20
2023-04-18T07:18:47.369Z,70.61
2023-04-18T07:21:16.144Z,71.32
2023-04-18T07:23:45.255Z,69.22
2023-04-18T07:26:13.373Z,69.79
2023-04-18T07:28:42.242Z,69.83
2023-04-18T07:31:11.542Z,67.83
2023-04-18T07:33:43.384Z,69.67
2023-04-18T07:36:12.568Z,70.53
2023-04-18T07:38:39.476Z,71.21
2023-04-18T07:41:06.068Z,69.80
2023-04-18T07:43:34.786Z,69.63
2023-04-18T07:46:01.399Z,67.93
2023-04-18T07:48:28.035Z,68.71
2023-04-18T07:50:54.663Z,68.22
2023-04-18T07:53:21.282Z,69.90
2023-04-18T07:55:47.927Z,69.99
2023-04-18T08:01:58.293Z,68.55
2023-04-18T08:04:28.210Z,68.57
2023-04-18T08:06:56.551Z,69.25
2023-04-18T08:09:25.746Z,67.49
2023-04-18T08:11:52.832Z,67.49
2023-04-18T08:14:19.423Z,67.57
2023-04-18T08:16:46.011Z,66.09
2023-04-18T08:19:12.998Z,67.50
2023-04-18T08:21:42.097Z,66.54
2023-04-18T08:24:08.714Z,66.36
2023-04-18T08:26:37.378Z,65.83
2023-04-18T08:29:06.373Z,66.32
2023-04-18T08:31:35.271Z,65.66
2023-04-18T08:34:06.340Z,65.17
2023-04-18T08:36:32.980Z,64.32
2023-04-18T08:38:59.835Z,62.20
2023-04-18T08:41:27.392Z,63.01
2023-04-18T08:43:57.205Z,64.78
2023-04-18T08:46:26.242Z,61.26
2023-04-18T08:48:53.652Z,61.20
2023-04-18T08:51:21.566Z,60.77
2023-04-18T08:53:50.692Z,60.79
2023-04-18T08:56:17.270Z,61.83
2023-04-18T08:58:50.209Z,58.06
2023-04-18T09:01:23.030Z,59.51
2023-04-18T09:03:55.020Z,59.52
2023-04-18T09:06:25.201Z,59.29
2023-04-18T09:08:58.805Z,58.66
2023-04-18T09:11:28.997Z,57.28
2023-04-18T09:13:59.493Z,58.48
2023-04-18T09:16:27.767Z,56.96
2023-04-18T09:19:11.163Z,56.22
2023-04-18T09:21:46.742Z,55.35
2023-04-18T09:24:22.801Z,56.49
2023-04-18T09:26:55.872Z,56.87
2023-04-18T09:29:46.157Z,57.76
2023-04-18T09:32:25.153Z,59.04
2023-04-18T09:34:58.024Z,56.76
2023-04-18T09:37:28.281Z,55.02
2023-04-18T09:39:55.494Z,55.72
2023-04-18T09:42:22.438Z,54.03
2023-04-18T09:45:06.723Z,53.42
2023-04-18T09:47:37.590Z,53.95
2023-04-18T09:50:05.748Z,53.38
2023-04-18T09:52:35.926Z,53.92
2023-04-18T09:55:09.964Z,54.21
2023-04-18T09:57:42.820Z,53.94
2023-04-18T10:00:18.009Z,54.59
2023-04-18T10:02:52.134Z,53.78
2023-04-18T10:05:21.442Z,55.26
2023-04-18T10:07:50.549Z,54.47
2023-04-18T10:10:17.686Z,54.47
2023-04-18T10:12:47.864Z,54.22
2023-04-18T10:15:16.095Z,55.02
2023-04-18T10:18:03.726Z,53.93
2023-04-18T10:20:36.279Z,53.55
2023-04-18T10:23:31.393Z,53.29
2023-04-18T10:25:59.535Z,53.02
2023-04-18T10:28:28.685Z,53.05
2023-04-18T10:31:04.954Z,53.06
2023-04-18T10:33:42.031Z,52.61
2023-04-18T10:36:09.234Z,56.50
2023-04-18T10:38:47.284Z,52.23
2023-04-18T10:41:23.023Z,53.29
2023-04-18T10:44:08.704Z,50.32
2023-04-18T10:46:36.660Z,51.25
2023-04-18T10:49:16.826Z,50.77
2023-04-18T10:51:45.316Z,52.64
2023-04-18T10:54:19.981Z,51.38
2023-04-18T10:56:56.625Z,50.71
2023-04-18T10:59:25.115Z,52.03
2023-04-18T11:01:57.229Z,50.53
2023-04-18T11:04:25.443Z,53.36
2023-04-18T11:06:55.957Z,50.88
2023-04-18T11:09:25.382Z,50.06
2023-04-18T11:12:09.429Z,48.81
2023-04-18T11:14:48.363Z,46.39
2023-04-18T11:17:18.409Z,47.80
2023-04-18T11:19:45.480Z,47.26
2023-04-18T11:22:12.775Z,46.71
2023-04-18T11:24:42.093Z,49.25
2023-04-18T11:27:10.669Z,47.63
2023-04-18T11:29:41.769Z,50.10
2023-04-18T11:32:09.599Z,46.57
2023-04-18T11:34:36.609Z,46.68
2023-04-18T11:37:07.447Z,46.70
2023-04-18T11:39:42.901Z,48.68
2023-04-18T11:42:09.742Z,48.44
2023-04-18T11:44:39.986Z,47.99
2023-04-18T11:47:34.065Z,47.62
2023-04-18T11:50:05.192Z,47.01
2023-04-18T11:52:33.524Z,45.61
2023-04-18T11:55:21.773Z,45.71
2023-04-18T11:57:58.650Z,42.53
2023-04-18T12:00:33.021Z,43.69
2023-04-18T12:03:04.487Z,45.33
2023-04-18T12:05:38.432Z,46.31
2023-04-18T12:08:19.796Z,46.79
2023-04-18T12:10:47.438Z,47.51
2023-04-18T12:13:35.522Z,47.36
2023-04-18T12:16:14.511Z,48.17
2023-04-18T12:18:51.081Z,47.84
2023-04-18T12:21:20.004Z,48.43
2023-04-18T12:23:48.238Z,47.78
2023-04-18T12:26:20.263Z,45.65
2023-04-18T12:28:49.639Z,45.79
2023-04-18T12:31:19.408Z,45.27
2023-04-18T12:33:46.001Z,45.57
2023-04-18T12:36:12.634Z,44.57
2023-04-18T12:38:41.328Z,45.15
2023-04-18T12:41:07.994Z,45.68
2023-04-18T12:43:34.601Z,44.92
2023-04-18T12:46:04.027Z,43.74
2023-04-18T12:48:30.740Z,41.53
2023-04-18T12:50:59.858Z,42.86
2023-04-18T12:53:28.900Z,43.95
2023-04-18T12:56:00.860Z,42.57
2023-04-18T12:58:27.433Z,44.09
2023-04-18T13:00:56.863Z,42.15
2023-04-18T13:03:23.734Z,43.70
2023-04-18T13:05:55.273Z,42.91
2023-04-18T13:08:23.301Z,42.53
2023-04-18T13:10:49.865Z,45.11
2023-04-18T13:13:21.638Z,45.63
2023-04-18T13:15:50.541Z,42.30
2023-04-18T13:18:20.686Z,39.17
2023-04-18T13:20:51.543Z,40.13
2023-04-18T13:23:20.457Z,41.41
2023-04-18T13:25:54.371Z,39.11
2023-04-18T13:28:23.011Z,37.88
2023-04-18T13:30:56.836Z,38.34
2023-04-18T13:37:10.750Z,35.17
2023-04-18T13:39:37.844Z,35.04
2023-04-18T13:42:07.691Z,34.37
2023-04-18T13:44:35.964Z,36.46
2023-04-18T13:47:06.278Z,34.21
2023-04-18T13:49:44.926Z,34.15
2023-04-18T13:52:14.011Z,34.66
2023-04-18T13:54:43.000Z,35.86
2023-04-18T13:57:12.063Z,35.63
2023-04-18T13:59:46.897Z,34.68
2023-04-18T14:02:16.035Z,36.69
2023-04-18T14:04:45.623Z,35.90
2023-04-18T14:07:15.054Z,34.05
2023-04-18T14:09:41.623Z,33.84
2023-04-18T14:12:18.796Z,32.46
2023-04-18T14:14:45.526Z,32.83
2023-04-18T14:17:16.815Z,32.34
2023-04-18T14:19:43.405Z,32.62
2023-04-18T14:22:14.755Z,32.06
2023-04-18T14:24:41.339Z,33.10
2023-04-18T14:27:07.928Z,30.68
2023-04-18T14:29:36.973Z,31.61
2023-04-18T14:32:03.645Z,31.72
2023-04-18T14:34:45.610Z,32.27
2023-04-18T14:40:52.927Z,32.35
2023-04-18T14:43:21.763Z,31.23
2023-04-18T15:39:59.623Z,31.04
2023-04-18T15:42:40.128Z,34.36
2023-04-18T15:47:59.003Z,31.11
2023-04-18T15:50:26.086Z,33.00
2023-04-18T15:52:52.783Z,33.66
2023-04-18T15:55:24.838Z,35.07
2023-04-18T15:58:10.061Z,33.26
2023-04-18T16:01:03.398Z,34.58
2023-04-18T16:03:36.311Z,35.65
2023-04-18T16:06:05.356Z,36.29
2023-04-18T16:08:33.993Z,35.19
2023-04-18T16:11:07.028Z,36.84
2023-04-18T16:13:38.258Z,34.74
2023-04-18T16:16:05.769Z,35.56
2023-04-18T16:18:32.558Z,34.75
2023-04-18T16:20:59.168Z,34.70
2023-04-18T16:23:28.494Z,36.49
2023-04-18T16:25:57.571Z,35.48
2023-04-18T16:28:24.347Z,36.06
2023-04-18T16:30:55.527Z,36.25
2023-04-18T16:33:25.842Z,36.04
2023-04-18T16:35:53.091Z,35.77
2023-04-18T16:38:23.430Z,36.59
2023-04-18T16:40:54.030Z,37.91
2023-04-18T16:43:20.734Z,37.06
2023-04-18T16:45:47.314Z,36.99
2023-04-18T16:48:14.061Z,38.04
2023-04-18T16:50:40.766Z,37.33
2023-04-18T16:53:09.460Z,40.25
2023-04-18T16:55:36.157Z,37.36
2023-04-18T16:58:05.124Z,36.32
2023-04-18T17:00:34.271Z,37.48
2023-04-18T17:03:01.799Z,37.23
2023-04-18T17:05:28.489Z,36.84
2023-04-18T17:07:56.054Z,38.33
2023-04-18T17:10:22.938Z,38.09
2023-04-18T17:12:51.875Z,38.60
2023-04-18T17:15:21.269Z,41.29
2023-04-18T17:17:48.194Z,39.34
2023-04-18T17:20:16.118Z,41.32
2023-04-18T17:22:42.644Z,37.13
2023-04-18T17:25:12.053Z,37.96
2023-04-18T17:27:43.984Z,38.31
2023-04-18T17:30:11.178Z,37.84
2023-04-18T17:32:42.962Z,37.71
2023-04-18T17:35:16.879Z,37.84
2023-04-18T17:37:43.583Z,39.19
2023-04-18T17:40:15.276Z,39.77
2023-04-18T17:42:42.300Z,42.02
2023-04-18T17:45:11.821Z,41.78
2023-04-18T17:47:41.390Z,42.19
2023-04-18T17:50:11.528Z,41.11
2023-04-18T17:52:43.951Z,43.63
2023-04-18T17:55:12.888Z,43.42
2023-04-18T17:57:41.665Z,42.08
2023-04-18T18:00:11.716Z,41.44
2023-04-18T18:02:42.478Z,39.91
2023-04-18T18:05:13.093Z,43.14
2023-04-18T18:07:42.287Z,42.17
2023-04-18T18:10:10.074Z,42.97
2023-04-18T18:12:40.020Z,42.82
2023-04-18T18:15:14.538Z,44.82
2023-04-18T18:17:45.873Z,45.09
2023-04-18T18:20:12.677Z,43.60
2023-04-18T18:22:39.302Z,45.44
2023-04-18T18:25:09.512Z,42.38
2023-04-18T18:27:39.505Z,43.15
2023-04-18T18:30:11.524Z,43.03
2023-04-18T18:32:40.672Z,44.42
2023-04-18T18:35:12.554Z,44.79
2023-04-18T18:37:39.697Z,43.72
2023-04-18T18:40:07.414Z,43.96
2023-04-18T18:42:34.041Z,44.16
2023-04-18T18:45:01.840Z,43.70
2023-04-18T18:47:30.915Z,43.80
2023-04-18T18:49:59.756Z,44.50
2023-04-18T18:52:31.608Z,44.03
2023-04-18T18:54:58.379Z,44.76
2023-04-18T18:57:27.616Z,44.53
2023-04-18T18:59:56.488Z,46.19
2023-04-18T19:02:23.579Z,47.22
2023-04-18T19:04:50.908Z,46.88
2023-04-18T19:07:20.511Z,46.09
2023-04-18T19:09:50.295Z,45.33
2023-04-18T19:12:19.753Z,45.31
2023-04-18T19:14:49.529Z,44.12
2023-04-18T19:17:18.768Z,44.71
2023-04-18T19:19:45.381Z,44.07
2023-04-18T19:22:14.325Z,44.53
2023-04-18T19:24:43.258Z,45.02
2023-04-18T19:27:09.864Z,44.04
2023-04-18T19:29:36.429Z,44.80
2023-04-18T19:32:09.051Z,43.80
2023-04-18T19:34:38.393Z,43.75
2023-04-18T19:37:07.306Z,43.66
2023-04-18T19:39:34.443Z,43.35
2023-04-18T19:42:05.845Z,44.43
2023-04-18T19:44:37.244Z,43.57
2023-04-18T19:47:06.170Z,43.49
2023-04-18T19:49:37.876Z,43.25
2023-04-18T19:52:06.728Z,42.95
2023-04-18T19:54:35.792Z,43.65
2023-04-18T19:57:06.305Z,43.84
2023-04-18T19:59:32.979Z,44.50
2023-04-18T20:02:03.327Z,44.35
2023-04-18T20:04:34.307Z,43.70
2023-04-18T20:07:01.306Z,44.25
2023-04-18T20:09:30.711Z,46.02
2023-04-18T20:12:00.472Z,44.18
2023-04-18T20:14:30.521Z,43.38
2023-04-18T20:16:59.504Z,44.21
2023-04-18T20:19:27.243Z,44.31
2023-04-18T20:21:58.668Z,44.11
2023-04-18T20:24:28.039Z,43.01
2023-04-18T20:26:54.686Z,43.11
2023-04-18T20:29:23.529Z,42.97
2023-04-18T20:31:50.265Z,43.07
2023-04-18T20:34:16.983Z,43.94
2023-04-18T20:36:47.687Z,43.20
2023-04-18T20:39:14.611Z,43.39
2023-04-18T20:41:48.576Z,42.73
2023-04-18T20:44:22.078Z,42.79
2023-04-18T20:46:48.760Z,42.35
2023-04-18T20:49:17.833Z,42.28
2023-04-18T20:51:46.885Z,42.06
2023-04-18T20:54:15.999Z,43.12
2023-04-18T20:56:42.838Z,42.73
2023-04-18T20:59:15.656Z,43.28
2023-04-18T21:01:42.914Z,44.66
2023-04-18T21:04:12.353Z,44.15
2023-04-18T21:06:39.358Z,44.71
2023-04-18T21:09:08.909Z,44.53
2023-04-18T21:11:38.041Z,44.62
2023-04-18T21:14:06.905Z,45.70
2023-04-18T21:16:39.263Z,46.21
2023-04-18T21:19:07.108Z,45.85
2023-04-18T21:21:34.405Z,45.97
2023-04-18T21:24:03.454Z,45.72
2023-04-18T21:26:30.134Z,45.37
2023-04-18T21:29:09.687Z,46.64
2023-04-18T21:31:38.659Z,46.60
2023-04-18T21:34:05.520Z,46.64
2023-04-18T21:36:34.890Z,46.36
2023-04-18T21:39:01.497Z,46.07
2023-04-18T21:41:30.484Z,46.39
2023-04-18T21:43:57.132Z,46.54
2023-04-18T21:46:23.846Z,46.53
2023-04-18T21:48:53.001Z,47.46
2023-04-18T21:51:19.748Z,47.40
2023-04-18T21:53:48.860Z,46.73
2023-04-18T21:56:17.120Z,46.89
2023-04-18T21:58:43.858Z,47.12
2023-04-18T22:01:12.831Z,46.36
2023-04-18T22:03:41.795Z,47.79
2023-04-18T22:06:11.938Z,47.69
2023-04-18T22:08:42.130Z,47.15
2023-04-18T22:11:13.704Z,47.55
2023-04-18T22:13:44.649Z,46.84
2023-04-18T22:16:11.647Z,47.06
2023-04-18T22:18:38.351Z,47.25
2023-04-18T22:21:05.107Z,46.80
2023-04-18T22:23:31.795Z,47.50
2023-04-18T22:25:58.486Z,47.89
2023-04-18T22:28:28.976Z,47.97
2023-04-18T22:30:56.021Z,47.57
2023-04-18T22:33:24.911Z,47.88
2023-04-18T22:35:54.479Z,46.83
2023-04-18T22:38:23.349Z,47.78
2023-04-18T22:40:54.659Z,46.31
2023-04-18T22:43:23.771Z,46.55
2023-04-18T22:45:53.107Z,47.06
2023-04-18T22:48:19.972Z,46.97
2023-04-18T22:50:47.354Z,46.95
2023-04-18T22:53:16.375Z,46.57
2023-04-18T22:55:45.741Z,47.39
2023-04-18T22:58:12.733Z,46.43
2023-04-18T23:00:39.599Z,46.30
2023-04-18T23:03:06.558Z,46.15
2023-04-18T23:05:34.273Z,46.02
2023-04-18T23:08:03.684Z,46.74
2023-04-18T23:10:30.820Z,45.65
2023-04-18T23:12:57.604Z,45.27
2023-04-18T23:15:26.180Z,45.72
2023-04-18T23:17:56.549Z,45.55
2023-04-18T23:20:24.087Z,44.48
2023-04-18T23:22:51.686Z,44.71
2023-04-18T23:25:19.653Z,44.34
2023-04-18T23:27:46.914Z,45.54
2023-04-18T23:30:14.037Z,44.70
2023-04-18T23:32:40.823Z,45.28
2023-04-18T23:35:07.713Z,45.41
2023-04-18T23:37:34.353Z,44.42
2023-04-18T23:40:06.539Z,44.28
2023-04-18T23:42:36.421Z,44.26
2023-04-18T23:45:04.519Z,44.50
2023-04-18T23:47:33.590Z,44.42
2023-04-18T23:50:02.476Z,44.47
2023-04-18T23:52:31.512Z,43.98
2023-04-18T23:55:01.813Z,44.38
2023-04-18T23:57:35.182Z,44.45
